Time;durP1;ratioP1;P1;durP2;ratioP2;P2;SDS_P1;SDS_P2;PMS_P1;PMS_P2;Temp;Humidity;BMP_temperature;BMP_pressure;BME280_temperature;BME280_humidity;BME280_pressure;Samples;Min_cycle;Max_cycle;Signal;HPM_P1;HPM_P2
2022/10/30 00:00:58;;;;;;;1.93;1.83;;;26.00;68.70;;;;;;5056790;28;20535;-94
2022/10/30 00:03:25;;;;;;;1.97;1.87;;;26.00;68.60;;;;;;5080082;28;20441;-94
2022/10/30 00:05:52;;;;;;;1.57;1.47;;;26.00;68.70;;;;;;5063194;28;20433;-95
2022/10/30 00:08:20;;;;;;;1.60;1.50;;;26.00;68.80;;;;;;5077383;28;20504;-94
2022/10/30 00:10:49;;;;;;;2.90;1.80;;;26.00;68.60;;;;;;5057524;28;20962;-95
2022/10/30 00:13:18;;;;;;;1.63;1.53;;;26.00;68.50;;;;;;5057557;28;20508;-94
2022/10/30 00:15:48;;;;;;;1.60;1.50;;;26.00;69.40;;;;;;5056402;28;20444;-94
2022/10/30 00:18:15;;;;;;;2.07;1.97;;;26.00;68.60;;;;;;5055879;28;20468;-94
2022/10/30 00:20:42;;;;;;;1.80;1.67;;;26.00;68.70;;;;;;5056089;28;20543;-94
2022/10/30 00:23:09;;;;;;;1.40;1.30;;;26.00;68.60;;;;;;5055657;28;20844;-94
2022/10/30 00:25:37;;;;;;;1.63;1.53;;;26.00;68.60;;;;;;5055514;28;20579;-94
2022/10/30 00:28:06;;;;;;;1.73;1.63;;;26.00;68.70;;;;;;5056156;28;20541;-95
2022/10/30 00:30:35;;;;;;;1.50;1.40;;;26.00;68.80;;;;;;5055847;28;20455;-94
2022/10/30 00:33:02;;;;;;;1.93;1.60;;;26.00;68.70;;;;;;5055236;28;20540;-94
2022/10/30 00:35:29;;;;;;;1.70;1.60;;;26.00;68.70;;;;;;5055727;28;20445;-94
2022/10/30 00:37:56;;;;;;;1.80;1.53;;;26.00;68.70;;;;;;5055666;28;20540;-94
2022/10/30 00:40:23;;;;;;;2.23;2.03;;;26.00;68.60;;;;;;5055835;28;20528;-94
2022/10/30 00:42:50;;;;;;;1.70;1.50;;;26.00;68.80;;;;;;5055614;28;20445;-94
2022/10/30 00:45:18;;;;;;;1.57;1.47;;;26.00;68.70;;;;;;5055441;28;20452;-94
2022/10/30 00:47:52;;;;;;;1.70;1.60;;;26.00;68.80;;;;;;5055126;28;20452;-94
2022/10/30 00:50:25;;;;;;;1.70;1.60;;;26.00;68.80;;;;;;5055292;28;20997;-94
2022/10/30 00:52:58;;;;;;;1.60;1.50;;;26.00;68.70;;;;;;5056169;28;20452;-94
2022/10/30 00:55:29;;;;;;;2.00;1.90;;;26.00;68.80;;;;;;5055772;28;20451;-94
2022/10/30 00:57:58;;;;;;;1.80;1.70;;;26.00;68.80;;;;;;5055011;28;20531;-94
2022/10/30 01:00:28;;;;;;;1.63;1.53;;;26.00;68.80;;;;;;5055135;28;20448;-94
2022/10/30 01:02:57;;;;;;;1.83;1.73;;;26.00;68.90;;;;;;5055273;28;20540;-94
2022/10/30 01:05:27;;;;;;;1.40;1.30;;;26.00;68.80;;;;;;5037460;28;20443;-94
2022/10/30 01:07:54;;;;;;;1.50;1.40;;;26.00;68.90;;;;;;5055453;28;20811;-94
2022/10/30 01:10:22;;;;;;;1.43;1.33;;;26.00;68.90;;;;;;5054910;28;20448;-94
2022/10/30 01:12:51;;;;;;;1.60;1.50;;;26.00;69.00;;;;;;5055377;28;20449;-94
2022/10/30 01:15:19;;;;;;;1.70;1.60;;;26.00;68.90;;;;;;5037813;28;20445;-95
2022/10/30 01:18:16;;;;;;;1.53;1.43;;;26.00;68.90;;;;;;5055117;28;20944;-94
2022/10/30 01:21:18;;;;;;;1.57;1.47;;;26.00;68.90;;;;;;5052991;28;20439;-94
2022/10/30 01:23:56;;;;;;;1.90;1.80;;;26.00;68.80;;;;;;5040646;28;20437;-94
2022/10/30 01:26:34;;;;;;;2.80;1.93;;;26.00;68.90;;;;;;5054717;28;20529;-94
2022/10/30 01:29:22;;;;;;;1.30;1.20;;;26.00;68.90;;;;;;5054777;28;20449;-94
2022/10/30 01:32:13;;;;;;;1.80;1.60;;;26.00;68.90;;;;;;5055369;28;20515;-94
2022/10/30 01:35:05;;;;;;;1.73;1.63;;;26.00;69.00;;;;;;5052487;28;20441;-94
2022/10/30 01:37:40;;;;;;;1.80;1.60;;;26.00;69.00;;;;;;5055923;28;20432;-94
2022/10/30 01:40:14;;;;;;;1.70;1.60;;;26.00;69.10;;;;;;5056367;28;20572;-94
2022/10/30 01:42:50;;;;;;;2.03;1.80;;;26.00;69.10;;;;;;5055456;28;20462;-94
2022/10/30 01:45:24;;;;;;;2.10;1.90;;;26.00;69.20;;;;;;5057199;28;20451;-94
2022/10/30 01:48:06;;;;;;;1.40;1.30;;;25.90;69.00;;;;;;5051822;28;20508;-94
2022/10/30 01:50:40;;;;;;;1.70;1.60;;;26.00;69.00;;;;;;5063706;28;20468;-94
2022/10/30 01:53:21;;;;;;;1.70;1.60;;;26.00;69.10;;;;;;5059100;28;20784;-94
2022/10/30 01:55:54;;;;;;;1.97;1.87;;;26.00;69.00;;;;;;5058553;28;20452;-94
2022/10/30 01:58:28;;;;;;;1.70;1.60;;;26.00;69.00;;;;;;5058064;28;20452;-93
2022/10/30 02:00:58;;;;;;;2.60;1.97;;;25.90;68.90;;;;;;5058023;28;20445;-94
2022/10/30 02:03:26;;;;;;;1.57;1.47;;;26.00;69.00;;;;;;5058550;28;20475;-94
2022/10/30 02:05:54;;;;;;;1.73;1.63;;;26.00;69.00;;;;;;5058070;28;20951;-94
2022/10/30 02:08:23;;;;;;;1.70;1.60;;;26.00;69.00;;;;;;5058481;28;20563;-94
2022/10/30 02:10:52;;;;;;;1.73;1.63;;;26.00;69.10;;;;;;5058258;28;20443;-94
2022/10/30 02:13:20;;;;;;;1.60;1.50;;;26.00;69.20;;;;;;5057803;28;20444;-93
2022/10/30 02:15:48;;;;;;;2.20;2.10;;;25.90;68.90;;;;;;5057743;28;20449;-93
2022/10/30 02:18:15;;;;;;;1.80;1.50;;;25.90;69.00;;;;;;5057982;28;20453;-94
2022/10/30 02:20:43;;;;;;;1.77;1.67;;;25.90;69.20;;;;;;5057783;28;20492;-94
2022/10/30 02:23:15;;;;;;;1.90;1.80;;;26.00;69.20;;;;;;5040418;28;20445;-94
2022/10/30 02:25:42;;;;;;;1.70;1.60;;;25.90;69.20;;;;;;5057864;28;20445;-94
2022/10/30 02:28:09;;;;;;;1.63;1.53;;;25.90;69.10;;;;;;5057414;28;20544;-94
2022/10/30 02:30:36;;;;;;;1.77;1.67;;;25.90;69.20;;;;;;5057773;28;20440;-94
2022/10/30 02:33:03;;;;;;;1.43;1.33;;;25.90;69.10;;;;;;5057605;28;20559;-94
2022/10/30 02:35:30;;;;;;;1.70;1.60;;;25.90;69.10;;;;;;5057725;28;20448;-94
2022/10/30 02:37:58;;;;;;;1.67;1.57;;;25.90;69.00;;;;;;5056824;28;20970;-92
2022/10/30 02:40:26;;;;;;;2.07;1.60;;;25.90;69.10;;;;;;5057567;28;20567;-93
2022/10/30 02:42:54;;;;;;;1.63;1.53;;;25.90;69.20;;;;;;5040043;28;20453;-93
2022/10/30 02:45:21;;;;;;;2.33;1.93;;;25.90;69.20;;;;;;5057178;28;20944;-94
2022/10/30 02:47:48;;;;;;;1.63;1.53;;;25.90;69.20;;;;;;5056911;28;20962;-93
2022/10/30 02:50:15;;;;;;;1.77;1.67;;;25.90;69.20;;;;;;5057163;28;20443;-93
2022/10/30 02:52:45;;;;;;;1.50;1.40;;;25.90;69.20;;;;;;5057043;28;20528;-94
2022/10/30 02:55:14;;;;;;;1.60;1.50;;;25.90;69.30;;;;;;5057329;28;20444;-93
2022/10/30 02:57:41;;;;;;;1.80;1.70;;;25.90;69.20;;;;;;5056393;28;20532;-93
2022/10/30 03:00:08;;;;;;;1.63;1.53;;;25.90;69.30;;;;;;5056713;28;20571;-93
2022/10/30 03:02:35;;;;;;;1.70;1.60;;;25.90;69.20;;;;;;5056927;28;20457;-93
2022/10/30 03:05:02;;;;;;;1.43;1.20;;;25.90;69.20;;;;;;5056779;28;20532;-93
2022/10/30 03:07:29;;;;;;;1.50;1.40;;;25.90;69.10;;;;;;5049087;28;20868;-94
2022/10/30 03:09:56;;;;;;;1.57;1.47;;;25.90;69.20;;;;;;5076964;28;20454;-94
2022/10/30 03:12:24;;;;;;;1.70;1.60;;;25.90;69.40;;;;;;5076824;28;20531;-94
2022/10/30 03:14:53;;;;;;;1.97;1.87;;;25.90;70.00;;;;;;5077144;28;20462;-94
2022/10/30 03:17:20;;;;;;;1.87;1.77;;;25.90;69.10;;;;;;5076606;28;20952;-93
2022/10/30 03:19:47;;;;;;;1.73;1.63;;;25.90;69.20;;;;;;5076597;28;20491;-94
2022/10/30 03:22:14;;;;;;;1.90;1.80;;;25.90;69.20;;;;;;5076885;28;20851;-94
2022/10/30 03:24:40;;;;;;;1.63;1.53;;;25.90;69.20;;;;;;5077396;28;20930;-93
2022/10/30 03:27:07;;;;;;;1.90;1.80;;;25.90;69.20;;;;;;5077253;28;20447;-94
2022/10/30 03:29:35;;;;;;;1.63;1.53;;;25.90;69.20;;;;;;5077670;28;20555;-94
2022/10/30 03:32:02;;;;;;;2.23;2.13;;;25.90;69.20;;;;;;5076983;28;20478;-94
2022/10/30 03:34:29;;;;;;;1.60;1.50;;;25.90;69.30;;;;;;5076765;28;20810;-94
2022/10/30 03:36:56;;;;;;;1.50;1.40;;;25.90;69.30;;;;;;5076892;28;20512;-94
2022/10/30 03:39:23;;;;;;;1.77;1.67;;;25.90;69.30;;;;;;5077510;28;20498;-94
2022/10/30 03:41:50;;;;;;;1.60;1.50;;;25.90;69.30;;;;;;5076914;28;20847;-94
2022/10/30 03:44:17;;;;;;;1.83;1.73;;;25.90;69.30;;;;;;5076496;28;20460;-94
2022/10/30 03:46:45;;;;;;;1.53;1.43;;;25.90;69.40;;;;;;5076533;28;20772;-94
2022/10/30 03:49:12;;;;;;;1.90;1.80;;;26.00;69.50;;;;;;5058865;28;20441;-94
2022/10/30 03:51:39;;;;;;;1.97;1.87;;;25.90;69.30;;;;;;5076640;28;20794;-94
2022/10/30 03:54:06;;;;;;;2.00;1.73;;;25.90;69.40;;;;;;5076124;28;20515;-94
2022/10/30 03:56:33;;;;;;;1.80;1.70;;;26.00;69.50;;;;;;5058782;28;20444;-93
2022/10/30 03:59:00;;;;;;;1.73;1.63;;;25.90;69.40;;;;;;5076256;28;20953;-94
2022/10/30 04:01:27;;;;;;;1.80;1.70;;;25.90;69.40;;;;;;5042433;28;20539;-94
2022/10/30 04:03:55;;;;;;;1.87;1.77;;;25.90;69.40;;;;;;5076252;28;20954;-94
2022/10/30 04:06:22;;;;;;;1.63;1.53;;;25.90;69.40;;;;;;5074819;28;20462;-93
2022/10/30 04:08:49;;;;;;;1.40;1.30;;;25.90;69.40;;;;;;5055692;28;20536;-94
2022/10/30 04:11:16;;;;;;;1.37;1.27;;;25.90;69.40;;;;;;5056154;28;20492;-94
2022/10/30 04:13:43;;;;;;;1.73;1.63;;;25.90;69.50;;;;;;5039830;28;20448;-94
2022/10/30 04:16:10;;;;;;;1.80;1.70;;;25.90;69.40;;;;;;5056547;28;20449;-94
2022/10/30 04:18:37;;;;;;;1.60;1.50;;;25.90;69.40;;;;;;5057568;28;20463;-94
2022/10/30 04:21:05;;;;;;;2.03;1.90;;;25.80;69.30;;;;;;5055855;28;20496;-94
2022/10/30 04:23:32;;;;;;;1.80;1.70;;;25.90;69.40;;;;;;5056768;28;20936;-94
2022/10/30 04:26:00;;;;;;;1.33;1.23;;;25.90;69.30;;;;;;5056997;28;20454;-94
2022/10/30 04:28:27;;;;;;;1.70;1.60;;;25.90;69.40;;;;;;5057817;28;20448;-94
2022/10/30 04:30:54;;;;;;;1.60;1.50;;;25.80;69.10;;;;;;5064317;28;20543;-95
2022/10/30 04:33:21;;;;;;;1.70;1.60;;;25.90;69.40;;;;;;5077424;28;20472;-93
2022/10/30 04:35:47;;;;;;;1.93;1.83;;;25.90;69.30;;;;;;5236121;23;20505;-93
2022/10/30 04:38:17;;;;;;;1.53;1.43;;;25.90;69.20;;;;;;5039665;28;20443;-93
2022/10/30 04:40:44;;;;;;;1.80;1.70;;;25.80;69.30;;;;;;5020904;28;20485;-93
2022/10/30 04:43:12;;;;;;;1.70;1.60;;;25.90;69.20;;;;;;5017840;28;20823;-94
2022/10/30 04:45:40;;;;;;;2.00;1.90;;;25.80;69.20;;;;;;5016879;28;20481;-94
2022/10/30 04:48:08;;;;;;;1.80;1.70;;;25.90;69.40;;;;;;5015662;28;20459;-94
2022/10/30 04:50:35;;;;;;;1.70;1.60;;;25.80;69.20;;;;;;5015688;28;20538;-94
2022/10/30 04:53:04;;;;;;;2.07;1.97;;;25.80;69.10;;;;;;5015567;28;20456;-94
2022/10/30 04:55:33;;;;;;;1.40;1.30;;;25.80;69.10;;;;;;5015907;28;20454;-94
2022/10/30 04:58:01;;;;;;;1.70;1.60;;;25.90;69.20;;;;;;5015908;28;20449;-94
2022/10/30 05:00:29;;;;;;;2.10;1.43;;;25.80;69.20;;;;;;5015827;28;20521;-94
2022/10/30 05:02:59;;;;;;;1.50;1.40;;;25.80;69.10;;;;;;5015286;28;20546;-94
2022/10/30 05:05:25;;;;;;;1.60;1.50;;;25.80;69.20;;;;;;5015087;28;20453;-94
2022/10/30 05:07:52;;;;;;;1.97;1.87;;;25.80;69.20;;;;;;5015272;28;20532;-94
2022/10/30 05:10:19;;;;;;;1.50;1.40;;;25.80;69.10;;;;;;5015127;28;20439;-94
2022/10/30 05:12:47;;;;;;;1.70;1.60;;;25.80;69.10;;;;;;5015098;28;20468;-94
2022/10/30 05:15:15;;;;;;;1.70;1.60;;;25.80;69.00;;;;;;4997885;28;20809;-94
2022/10/30 05:17:42;;;;;;;1.50;1.40;;;25.80;69.10;;;;;;5015050;28;20444;-94
2022/10/30 05:20:09;;;;;;;2.07;1.97;;;25.80;69.10;;;;;;5014765;28;20473;-94
2022/10/30 05:22:36;;;;;;;1.80;1.70;;;25.80;69.00;;;;;;5014471;28;20534;-94
2022/10/30 05:25:04;;;;;;;1.43;1.33;;;25.80;69.90;;;;;;5015273;28;20518;-94
2022/10/30 05:27:31;;;;;;;1.40;1.30;;;25.80;69.00;;;;;;5014682;28;20548;-94
2022/10/30 05:29:59;;;;;;;2.03;1.93;;;25.80;69.10;;;;;;5014888;28;20782;-94
2022/10/30 05:32:27;;;;;;;2.20;1.80;;;25.80;69.10;;;;;;5015671;28;20467;-94
2022/10/30 05:34:53;;;;;;;1.73;1.63;;;25.80;69.10;;;;;;5019775;28;20484;-95
2022/10/30 05:37:20;;;;;;;1.60;1.50;;;25.80;69.10;;;;;;5034642;28;20465;-94
2022/10/30 05:39:47;;;;;;;1.60;1.50;;;25.80;69.10;;;;;;5034156;28;20472;-94
2022/10/30 05:42:14;;;;;;;1.60;1.50;;;25.80;69.10;;;;;;5034813;28;20449;-94
2022/10/30 05:44:41;;;;;;;2.10;2.00;;;25.80;69.10;;;;;;5034575;28;20453;-94
2022/10/30 05:47:11;;;;;;;1.77;1.67;;;25.80;70.10;;;;;;5034872;28;20477;-94
2022/10/30 05:49:39;;;;;;;1.70;1.60;;;25.80;69.20;;;;;;5035098;28;20471;-94
2022/10/30 05:52:06;;;;;;;1.70;1.60;;;25.80;69.00;;;;;;5035131;28;20456;-94
2022/10/30 05:54:33;;;;;;;1.67;1.57;;;25.80;69.10;;;;;;5034650;28;20513;-94
2022/10/30 05:57:00;;;;;;;1.80;1.70;;;25.80;69.20;;;;;;5034794;28;20481;-94
2022/10/30 05:59:27;;;;;;;1.70;1.60;;;25.80;69.00;;;;;;5035311;28;20517;-94
2022/10/30 06:01:54;;;;;;;1.73;1.63;;;25.80;69.00;;;;;;5034661;28;20496;-94
2022/10/30 06:04:23;;;;;;;1.90;1.80;;;25.80;69.10;;;;;;5034610;28;20499;-94
2022/10/30 06:06:49;;;;;;;1.80;1.70;;;25.80;69.00;;;;;;5035073;28;20476;-94
2022/10/30 06:09:16;;;;;;;1.80;1.70;;;25.80;69.00;;;;;;5034564;28;20929;-94
2022/10/30 06:11:43;;;;;;;1.73;1.63;;;25.80;69.00;;;;;;5034748;28;20557;-94
2022/10/30 06:14:10;;;;;;;1.87;1.77;;;25.80;69.10;;;;;;5034793;28;20444;-94
2022/10/30 06:16:37;;;;;;;1.67;1.57;;;25.80;69.00;;;;;;5034592;28;20442;-94
2022/10/30 06:19:04;;;;;;;1.70;1.60;;;25.80;69.00;;;;;;5033997;28;20445;-93
2022/10/30 06:21:34;;;;;;;2.10;2.00;;;25.80;69.00;;;;;;5033637;28;20518;-94
2022/10/30 06:24:01;;;;;;;1.97;1.87;;;25.80;69.00;;;;;;5033961;28;20803;-94
2022/10/30 06:26:28;;;;;;;1.60;1.50;;;25.80;69.00;;;;;;5034047;28;20442;-94
2022/10/30 06:28:55;;;;;;;2.13;2.03;;;25.80;69.00;;;;;;5034205;28;20456;-94
2022/10/30 06:31:22;;;;;;;1.60;1.50;;;25.80;69.10;;;;;;5034182;28;20441;-94
2022/10/30 06:33:49;;;;;;;1.90;1.80;;;25.80;69.10;;;;;;5036885;28;20460;-94
2022/10/30 06:36:17;;;;;;;1.87;1.77;;;25.80;69.00;;;;;;5037386;28;20465;-94
2022/10/30 06:38:45;;;;;;;1.70;1.60;;;25.70;69.00;;;;;;5037579;28;20448;-95
2022/10/30 06:41:12;;;;;;;1.67;1.57;;;25.70;69.00;;;;;;5037335;28;20480;-95
2022/10/30 06:43:39;;;;;;;1.80;1.70;;;25.70;69.00;;;;;;5037863;28;20532;-95
2022/10/30 06:46:06;;;;;;;1.80;1.67;;;25.70;69.00;;;;;;5037709;28;20539;-95
2022/10/30 06:48:33;;;;;;;1.93;1.83;;;25.70;69.00;;;;;;5038726;28;20540;-94
2022/10/30 06:51:01;;;;;;;1.87;1.77;;;25.70;69.00;;;;;;5037322;28;20532;-95
2022/10/30 06:53:28;;;;;;;1.63;1.53;;;25.80;69.00;;;;;;5037479;28;20454;-94
2022/10/30 06:55:58;;;;;;;2.17;2.07;;;25.80;69.00;;;;;;5037422;28;20454;-95
2022/10/30 06:58:25;;;;;;;2.07;1.70;;;25.70;69.00;;;;;;5037827;28;20468;-94
2022/10/30 07:00:52;;;;;;;1.90;1.67;;;25.80;69.00;;;;;;5037755;28;20482;-94
2022/10/30 07:03:19;;;;;;;1.60;1.50;;;25.80;69.00;;;;;;5038033;28;20547;-95
2022/10/30 07:05:46;;;;;;;2.00;1.90;;;25.70;69.00;;;;;;5037753;28;20447;-95
2022/10/30 07:08:13;;;;;;;1.90;1.80;;;25.80;69.00;;;;;;5038321;28;20448;-95
2022/10/30 07:10:40;;;;;;;1.80;1.70;;;25.70;69.00;;;;;;5038472;28;20459;-94
2022/10/30 07:13:09;;;;;;;1.63;1.53;;;25.70;69.00;;;;;;5038853;28;20461;-94
2022/10/30 07:15:36;;;;;;;1.77;1.67;;;25.70;69.00;;;;;;5041402;28;20536;-95
2022/10/30 07:18:04;;;;;;;1.73;1.63;;;25.70;69.00;;;;;;5038891;28;20451;-94
2022/10/30 07:20:33;;;;;;;1.57;1.47;;;25.70;69.00;;;;;;5037495;28;20469;-95
2022/10/30 07:23:00;;;;;;;1.40;1.30;;;25.70;69.00;;;;;;5037177;28;20459;-94
2022/10/30 07:25:27;;;;;;;2.07;1.97;;;25.70;69.00;;;;;;5036639;28;20808;-95
2022/10/30 07:27:55;;;;;;;1.73;1.63;;;25.70;69.00;;;;;;5036623;28;20532;-94
2022/10/30 07:30:26;;;;;;;1.57;1.47;;;25.70;69.00;;;;;;5036769;28;20444;-94
2022/10/30 07:33:00;;;;;;;2.20;2.10;;;25.70;69.00;;;;;;5036369;28;20971;-94
2022/10/30 07:35:29;;;;;;;1.47;1.37;;;25.70;69.00;;;;;;5035977;28;20563;-95
2022/10/30 07:37:56;;;;;;;1.80;1.70;;;25.70;69.00;;;;;;5036520;28;20797;-95
2022/10/30 07:40:23;;;;;;;2.23;2.03;;;25.80;69.10;;;;;;5035772;28;20457;-94
2022/10/30 07:42:55;;;;;;;1.90;1.80;;;25.70;69.00;;;;;;5035953;28;20441;-94
2022/10/30 07:45:23;;;;;;;1.60;1.50;;;25.70;69.00;;;;;;5035341;28;20443;-95
2022/10/30 07:47:50;;;;;;;1.73;1.63;;;25.70;69.00;;;;;;5036166;28;20552;-95
2022/10/30 07:50:18;;;;;;;2.20;2.00;;;25.70;69.00;;;;;;5036318;28;20515;-94
2022/10/30 07:52:44;;;;;;;2.33;2.20;;;25.70;69.10;;;;;;5036114;28;20533;-92
2022/10/30 07:55:12;;;;;;;2.90;2.60;;;25.60;68.90;;;;;;5035077;28;20524;-93
2022/10/30 07:57:40;;;;;;;3.33;3.13;;;25.60;68.80;;;;;;5035372;28;20450;-92
2022/10/30 08:00:10;;;;;;;3.43;2.87;;;25.60;68.70;;;;;;5035444;28;20444;-92
2022/10/30 08:02:38;;;;;;;3.07;2.87;;;25.60;68.50;;;;;;5035055;28;20507;-92
2022/10/30 08:05:06;;;;;;;2.33;2.17;;;25.80;68.90;;;;;;5035030;28;20949;-92
2022/10/30 08:07:33;;;;;;;2.17;1.87;;;25.60;68.80;;;;;;5035067;28;20441;-92
2022/10/30 08:10:00;;;;;;;2.67;2.47;;;25.60;68.90;;;;;;5034786;28;20540;-92
2022/10/30 08:12:28;;;;;;;3.53;2.50;;;25.70;68.90;;;;;;5035568;28;20444;-96
2022/10/30 08:14:55;;;;;;;2.40;2.20;;;25.70;69.00;;;;;;5036618;28;20529;-95
2022/10/30 08:17:22;;;;;;;2.17;2.07;;;25.80;68.90;;;;;;5036485;28;20841;-95
2022/10/30 08:19:50;;;;;;;2.40;2.20;;;25.90;68.90;;;;;;5036839;28;20765;-95
2022/10/30 08:22:17;;;;;;;3.10;2.60;;;26.00;68.90;;;;;;5035776;28;20477;-96
2022/10/30 08:24:44;;;;;;;2.40;2.20;;;26.00;68.80;;;;;;5036062;28;20450;-96
2022/10/30 08:27:11;;;;;;;1.83;1.73;;;26.10;68.80;;;;;;5035635;28;20551;-96
2022/10/30 08:29:38;;;;;;;2.60;2.47;;;26.20;68.80;;;;;;5035869;28;20533;-95
2022/10/30 08:32:05;;;;;;;6.13;2.40;;;26.20;68.70;;;;;;5035733;28;20557;-96
2022/10/30 08:34:33;;;;;;;2.50;2.30;;;26.20;68.60;;;;;;5035481;28;20449;-96
2022/10/30 08:37:02;;;;;;;4.03;2.50;;;26.30;68.60;;;;;;5035800;28;20447;-88
2022/10/30 08:39:28;;;;;;;5.30;2.40;;;26.30;68.50;;;;;;5034244;28;20529;-87
2022/10/30 08:41:57;;;;;;;3.30;2.73;;;26.40;68.20;;;;;;5034080;28;20482;-87
2022/10/30 08:44:24;;;;;;;3.10;2.27;;;26.40;67.90;;;;;;5034222;28;20492;-87
2022/10/30 08:46:51;;;;;;;4.37;2.80;;;26.50;67.80;;;;;;5034461;28;20522;-87
2022/10/30 08:49:18;;;;;;;3.10;2.57;;;26.50;67.40;;;;;;5034581;28;20439;-87
2022/10/30 08:51:44;;;;;;;3.40;2.87;;;26.60;67.20;;;;;;5034466;28;20454;-88
2022/10/30 08:54:13;;;;;;;2.67;2.47;;;26.80;67.10;;;;;;5034415;28;20442;-87
2022/10/30 08:56:40;;;;;;;2.53;2.33;;;27.00;66.80;;;;;;5033653;28;20451;-87
2022/10/30 08:59:06;;;;;;;2.90;2.47;;;27.10;66.20;;;;;;5034150;28;20449;-87
2022/10/30 09:01:35;;;;;;;5.07;2.03;;;27.20;66.10;;;;;;5033578;28;20496;-87
2022/10/30 09:04:01;;;;;;;2.37;2.27;;;27.20;65.90;;;;;;5033794;28;20453;-87
2022/10/30 09:06:29;;;;;;;2.80;2.60;;;27.20;65.90;;;;;;5034015;28;20450;-87
